KCRX/CRX METAR and TAF weather

Enter ICAO airport designator
Station Type Date Time Source
KCRX METAR 2020/09/24 11:15 UTC NOAA

KCRX 241115Z AUTO 08007KT 10SM -DZ BKN008 OVC011 15/14 A2991 RMK AO2


Station Type Date Time Source
KCRX Decoded METAR 2020/09/24 11:15 UTC NOAA

Station name not available
Sep 24, 2020 - 07:15 AM EDT / 2020.09.24 1115 UTC
Wind: from the E (080 degrees) at 8 MPH (7 KT):0
Visibility: 10 mile(s):0
Sky conditions: overcast
Weather: light drizzle
Temperature: 59 F (15 C)
Dew Point: 57 F (14 C)
Relative Humidity: 93%
Pressure (altimeter): 29.91 in. Hg (1012 hPa)
ob: KCRX 241115Z AUTO 08007KT 10SM -DZ BKN008 OVC011 15/14 A2991 RMK AO2
cycle: 11

Station Type Date Time Source
KCRX TAF UTC NOAA

Error!

Example: see airport list